Time;durP1;ratioP1;P1;durP2;ratioP2;P2;SDS_P1;SDS_P2;PMS_P1;PMS_P2;Temp;Humidity;BMP_temperature;BMP_pressure;BME280_temperature;BME280_humidity;BME280_pressure;Samples;Min_cycle;Max_cycle;Signal;HPM_P1;HPM_P2
2021/09/05 00:01:29;;;;;;;16.87;6.90;;;;;;;16.31;72.79;101465.02;1678110;85;21985;-88
2021/09/05 00:04:01;;;;;;;23.20;7.08;;;;;;;16.24;71.45;101463.35;1678121;84;20931;-90
2021/09/05 00:06:31;;;;;;;25.15;7.15;;;;;;;16.19;70.54;101465.50;1677954;84;20954;-89
2021/09/05 00:08:58;;;;;;;26.15;7.50;;;;;;;16.16;69.91;101465.74;1678355;85;21025;-89
2021/09/05 00:11:26;;;;;;;23.02;7.30;;;;;;;16.14;69.93;101466.34;1677752;85;20947;-87
2021/09/05 00:13:54;;;;;;;26.48;7.40;;;;;;;16.14;69.63;101468.97;1677989;84;21406;-87
2021/09/05 00:16:23;;;;;;;24.47;7.20;;;;;;;16.11;69.53;101463.97;1677870;85;21520;-89
2021/09/05 00:18:51;;;;;;;24.63;8.18;;;;;;;16.09;69.46;101461.08;1678448;85;21506;-90
2021/09/05 00:21:19;;;;;;;22.58;7.50;;;;;;;16.06;69.23;101459.53;1678222;84;21046;-89
2021/09/05 00:23:47;;;;;;;23.40;8.33;;;;;;;16.03;69.14;101468.93;1678320;85;21025;-90
2021/09/05 00:26:14;;;;;;;31.30;9.95;;;;;;;15.98;68.45;101469.77;1678614;85;21150;-90
2021/09/05 00:28:42;;;;;;;26.20;9.38;;;;;;;15.96;68.20;101468.19;1678195;85;21054;-89
2021/09/05 00:31:09;;;;;;;29.10;8.60;;;;;;;15.95;67.79;101466.55;1678053;85;20993;-89
2021/09/05 00:33:37;;;;;;;27.90;9.08;;;;;;;15.95;67.49;101461.31;1654579;85;21461;-89
2021/09/05 00:36:08;;;;;;;24.72;9.13;;;;;;;15.96;67.23;101460.34;1678249;84;20919;-94
2021/09/05 00:38:35;;;;;;;20.55;9.70;;;;;;;15.98;66.67;101455.84;1678148;84;21156;-90
2021/09/05 00:41:01;;;;;;;27.62;9.85;;;;;;;15.98;66.41;101461.92;1678022;85;21497;-89
2021/09/05 00:43:29;;;;;;;33.85;10.08;;;;;;;15.98;66.27;101459.77;1678086;85;21505;-90
2021/09/05 00:45:57;;;;;;;28.47;10.13;;;;;;;15.99;66.06;101461.41;1678568;84;21461;-90
2021/09/05 00:48:25;;;;;;;37.48;9.53;;;;;;;15.98;65.89;101460.61;1677886;85;21065;-90
2021/09/05 00:50:54;;;;;;;38.10;9.68;;;;;;;15.96;65.83;101464.27;1678497;84;21964;-91
2021/09/05 00:53:21;;;;;;;35.10;10.00;;;;;;;15.94;65.61;101466.17;1677854;85;21020;-88
2021/09/05 00:55:47;;;;;;;32.90;10.05;;;;;;;15.92;65.58;101471.55;1677897;85;20875;-87
2021/09/05 00:58:15;;;;;;;28.27;9.80;;;;;;;15.92;65.82;101474.63;1678038;85;21450;-85
2021/09/05 01:00:44;;;;;;;22.90;9.83;;;;;;;15.92;65.98;101474.16;1654558;85;21081;-89
2021/09/05 01:03:10;;;;;;;26.48;9.70;;;;;;;15.87;65.79;101477.58;1632094;85;21172;-86
2021/09/05 01:05:37;;;;;;;24.02;9.75;;;;;;;15.80;65.73;101485.06;1677706;85;20922;-86
2021/09/05 01:08:05;;;;;;;22.20;9.48;;;;;;;15.75;65.99;101482.44;1678088;84;21009;-88
2021/09/05 01:10:35;;;;;;;26.02;10.28;;;;;;;15.70;66.15;101485.84;1655241;85;20875;-88
2021/09/05 01:13:02;;;;;;;23.32;10.18;;;;;;;15.67;66.23;101476.45;1677829;85;20990;-88
2021/09/05 01:15:30;;;;;;;18.60;9.70;;;;;;;15.66;66.37;101476.58;1678013;85;21095;-93
2021/09/05 01:17:58;;;;;;;19.75;10.40;;;;;;;15.64;66.43;101475.38;1677796;85;21029;-93
2021/09/05 01:20:42;;;;;;;16.15;10.25;;;;;;;15.61;66.31;101477.37;1678067;85;21094;-88
2021/09/05 01:23:21;;;;;;;16.50;9.58;;;;;;;15.57;66.18;101486.42;1639548;87;21028;-87
2021/09/05 01:25:55;;;;;;;22.82;9.40;;;;;;;15.57;66.11;101486.42;1663642;85;21524;-87
2021/09/05 01:28:41;;;;;;;20.43;10.50;;;;;;;15.57;66.23;101483.80;1677932;85;21091;-90
2021/09/05 01:31:53;;;;;;;20.62;9.53;;;;;;;15.61;66.28;101491.77;1639557;87;20957;-87
2021/09/05 01:34:27;;;;;;;24.75;10.80;;;;;;;15.63;66.34;101491.20;1649258;86;21045;-86
2021/09/05 01:36:57;;;;;;;12.47;8.95;;;;;;;15.68;66.01;101491.67;1663697;84;21032;-85
2021/09/05 01:39:42;;;;;;;22.37;10.35;;;;;;;15.69;65.85;101489.43;1684150;84;20999;-86
2021/09/05 01:42:27;;;;;;;19.77;10.85;;;;;;;15.66;65.67;101485.27;1684119;85;21161;-86
2021/09/05 01:45:12;;;;;;;18.23;9.88;;;;;;;15.65;65.41;101488.83;1683776;85;21030;-86
2021/09/05 01:47:50;;;;;;;19.65;10.48;;;;;;;15.63;65.56;101485.50;1661812;86;21092;-85
2021/09/05 01:50:19;;;;;;;17.32;10.80;;;;;;;15.61;65.50;101488.68;1681362;85;21568;-85
2021/09/05 01:52:56;;;;;;;15.35;10.13;;;;;;;15.61;65.63;101489.15;1681414;85;20928;-87
2021/09/05 01:55:43;;;;;;;15.80;10.00;;;;;;;15.58;65.40;101490.69;1684084;85;21146;-91
2021/09/05 01:58:19;;;;;;;17.85;10.30;;;;;;;15.52;64.99;101482.82;1681518;85;21629;-89
2021/09/05 02:00:47;;;;;;;17.45;10.63;;;;;;;15.47;64.70;101486.70;1684385;84;21506;-86
2021/09/05 02:03:15;;;;;;;18.40;11.05;;;;;;;15.41;64.48;101487.15;1683800;85;20959;-83
2021/09/05 02:05:46;;;;;;;21.57;12.00;;;;;;;15.32;63.71;101492.55;1683282;83;21449;-82
2021/09/05 02:08:28;;;;;;;21.52;11.48;;;;;;;15.00;63.39;101501.41;1650629;84;21186;-85
2021/09/05 02:10:57;;;;;;;26.20;11.48;;;;;;;15.00;63.39;101501.41;1681197;85;20896;-88
2021/09/05 02:13:32;;;;;;;16.80;10.78;;;;;;;14.86;64.22;101502.03;1683718;84;20968;-90
2021/09/05 02:16:05;;;;;;;17.07;11.30;;;;;;;14.80;64.71;101506.73;1681633;85;21025;-87
2021/09/05 02:18:36;;;;;;;22.48;11.73;;;;;;;14.79;64.94;101510.77;1682731;85;27235;-89
2021/09/05 02:21:10;;;;;;;15.75;10.75;;;;;;;14.78;65.10;101521.69;1680278;85;21141;-84
2021/09/05 02:23:39;;;;;;;20.55;11.05;;;;;;;14.75;65.46;101519.29;1682145;85;21070;-85
2021/09/05 02:26:07;;;;;;;20.43;11.40;;;;;;;14.77;65.88;101514.78;1682835;85;20944;-90
2021/09/05 02:28:43;;;;;;;17.25;10.75;;;;;;;14.79;66.15;101518.14;1682175;85;21014;-88
2021/09/05 02:31:29;;;;;;;26.12;12.03;;;;;;;14.84;66.31;101514.72;1684397;85;20991;-89
2021/09/05 02:34:03;;;;;;;16.95;11.25;;;;;;;14.90;66.45;101513.95;1669406;85;21156;-87
2021/09/05 02:36:41;;;;;;;16.52;11.05;;;;;;;14.94;66.48;101514.91;1612963;89;20991;-87
2021/09/05 02:39:24;;;;;;;14.68;10.32;;;;;;;14.98;66.55;101514.23;1675499;85;21112;-86
2021/09/05 02:41:59;;;;;;;17.30;11.18;;;;;;;15.00;66.41;101518.39;1674066;85;20985;-89
2021/09/05 02:44:38;;;;;;;19.12;11.28;;;;;;;15.03;66.42;101527.83;1674992;85;20898;-92
2021/09/05 02:47:24;;;;;;;18.20;10.85;;;;;;;15.00;66.27;101525.39;1674120;85;21151;-89
2021/09/05 02:50:01;;;;;;;14.95;11.43;;;;;;;14.93;66.36;101530.72;1674197;85;20903;-86
2021/09/05 02:52:49;;;;;;;16.95;11.95;;;;;;;14.85;66.71;101535.16;1668049;86;20975;-87
2021/09/05 02:55:19;;;;;;;15.53;11.25;;;;;;;14.77;67.05;101538.30;1667186;86;21002;-85
2021/09/05 02:57:51;;;;;;;19.65;11.40;;;;;;;14.71;67.36;101537.42;1672204;85;20998;-85
2021/09/05 03:00:20;;;;;;;17.75;10.98;;;;;;;14.66;67.62;101533.00;1673481;85;21829;-86
2021/09/05 03:02:55;;;;;;;16.67;11.88;;;;;;;14.63;67.91;101534.98;1675530;85;20963;-89
2021/09/05 03:05:41;;;;;;;19.35;12.55;;;;;;;14.62;68.16;101539.83;1674594;85;20958;-84
2021/09/05 03:08:21;;;;;;;18.10;11.90;;;;;;;14.60;68.40;101536.50;1674090;85;21556;-88
2021/09/05 03:10:51;;;;;;;18.92;12.28;;;;;;;14.58;68.57;101537.90;1677033;84;20946;-84
2021/09/05 03:13:29;;;;;;;22.15;12.20;;;;;;;14.59;68.72;101547.88;1674264;85;21594;-84
2021/09/05 03:15:58;;;;;;;19.52;12.50;;;;;;;14.58;68.78;101545.73;1676304;85;20995;-86
2021/09/05 03:18:32;;;;;;;15.80;10.35;;;;;;;14.58;68.95;101546.23;1674450;85;21477;-88
2021/09/05 03:21:03;;;;;;;18.37;12.15;;;;;;;14.62;69.06;101547.20;1673641;85;21105;-83
2021/09/05 03:23:32;;;;;;;17.15;11.80;;;;;;;14.66;69.17;101553.89;1636885;85;21010;-86
2021/09/05 03:26:00;;;;;;;22.15;12.73;;;;;;;14.69;69.19;101559.37;1674027;85;21110;-86
2021/09/05 03:28:46;;;;;;;23.60;13.03;;;;;;;14.70;69.23;101557.14;1674700;85;21477;-85
2021/09/05 03:31:21;;;;;;;22.15;12.53;;;;;;;14.73;69.29;101555.62;1674665;85;20938;-86
2021/09/05 03:33:53;;;;;;;18.75;12.55;;;;;;;14.74;69.39;101558.61;1660905;83;21000;-86
2021/09/05 03:36:38;;;;;;;27.17;12.20;;;;;;;14.76;69.46;101568.47;1678223;84;20946;-84
2021/09/05 03:39:09;;;;;;;18.82;12.35;;;;;;;14.78;69.55;101569.19;1676579;85;21161;-85
2021/09/05 03:41:46;;;;;;;17.98;12.28;;;;;;;14.78;69.46;101572.64;1674345;85;21520;-86
2021/09/05 03:44:18;;;;;;;22.82;11.78;;;;;;;14.79;69.35;101569.09;1678148;85;21016;-84
2021/09/05 03:47:04;;;;;;;22.42;12.25;;;;;;;14.81;69.41;101575.50;1678149;85;20943;-85
2021/09/05 03:49:50;;;;;;;23.67;13.28;;;;;;;14.84;69.45;101576.59;1678221;84;20962;-86
2021/09/05 03:52:17;;;;;;;18.55;12.37;;;;;;;14.87;69.51;101579.00;1677818;85;21117;-86
2021/09/05 03:54:44;;;;;;;25.20;14.20;;;;;;;14.88;69.55;101580.68;1678009;85;21584;-86
2021/09/05 03:57:10;;;;;;;26.30;15.65;;;;;;;14.88;69.64;101581.98;1654580;85;21018;-85
2021/09/05 03:59:37;;;;;;;21.07;14.28;;;;;;;14.89;69.78;101586.28;1678091;84;21454;-85
2021/09/05 04:02:05;;;;;;;26.37;15.72;;;;;;;14.90;69.91;101589.23;1678000;84;21453;-86
2021/09/05 04:04:32;;;;;;;25.75;14.70;;;;;;;14.93;70.02;101595.59;1654604;85;21110;-86
2021/09/05 04:07:00;;;;;;;21.90;12.78;;;;;;;14.96;70.12;101602.38;1678014;84;20978;-86
2021/09/05 04:12:16;;;;;;;23.62;13.75;;;;;;;15.03;70.33;101607.05;1678234;85;20974;-85
2021/09/05 04:14:43;;;;;;;27.55;15.40;;;;;;;15.06;70.56;101604.22;1678493;85;21057;-86
2021/09/05 04:17:10;;;;;;;78.55;44.60;;;;;;;15.10;70.62;101604.84;1677836;85;21965;-85
2021/09/05 04:19:39;;;;;;;88.05;49.50;;;;;;;15.12;70.79;101609.05;1677874;85;21081;-85
2021/09/05 04:22:05;;;;;;;111.62;65.28;;;;;;;15.14;70.88;101600.62;1678016;85;21005;-84
2021/09/05 04:24:33;;;;;;;137.12;66.72;;;;;;;15.17;71.01;101612.17;1678052;84;20998;-85
2021/09/05 04:27:01;;;;;;;154.63;73.95;;;;;;;15.21;71.21;101611.02;1677899;85;21516;-85
2021/09/05 04:29:27;;;;;;;147.05;71.12;;;;;;;15.27;71.33;101611.89;1677967;85;21144;-84
2021/09/05 04:31:55;;;;;;;121.55;59.65;;;;;;;15.34;71.40;101618.37;1677818;85;21006;-85
2021/09/05 04:34:22;;;;;;;106.37;48.23;;;;;;;15.40;71.41;101618.39;1674555;85;20955;-85
2021/09/05 04:36:48;;;;;;;53.05;28.17;;;;;;;15.47;71.60;101618.80;1670773;86;21022;-85
2021/09/05 04:39:15;;;;;;;32.25;19.02;;;;;;;15.52;71.78;101618.86;1670588;85;20891;-85
2021/09/05 04:41:42;;;;;;;30.52;17.32;;;;;;;15.61;71.92;101630.44;1670366;86;22087;-86
2021/09/05 04:44:10;;;;;;;23.38;15.10;;;;;;;15.69;71.97;101631.58;1670617;85;20951;-85
2021/09/05 04:46:36;;;;;;;26.52;15.05;;;;;;;15.79;72.09;101633.06;1670684;86;21002;-85
2021/09/05 04:49:03;;;;;;;35.88;19.45;;;;;;;15.92;72.13;101638.23;1670489;86;20982;-85
2021/09/05 04:51:29;;;;;;;55.40;27.32;;;;;;;16.05;72.04;101641.64;1670756;86;21001;-84
2021/09/05 04:53:57;;;;;;;66.40;34.48;;;;;;;16.17;71.85;101638.95;1670629;85;21426;-83
2021/09/05 04:56:24;;;;;;;47.50;27.98;;;;;;;16.31;71.76;101638.74;1670573;86;20879;-84
2021/09/05 04:58:50;;;;;;;40.55;21.77;;;;;;;16.43;71.46;101640.94;1670823;85;21006;-84
2021/09/05 05:01:17;;;;;;;29.37;17.40;;;;;;;16.57;71.32;101639.91;1670695;86;21014;-84
2021/09/05 05:03:44;;;;;;;22.35;13.95;;;;;;;16.69;70.99;101651.61;1670871;86;21002;-85
2021/09/05 05:06:12;;;;;;;17.92;12.90;;;;;;;16.82;70.74;101650.20;1670695;86;21890;-85
2021/09/05 05:08:40;;;;;;;22.67;12.98;;;;;;;16.96;70.12;101657.86;1670611;85;20986;-89
2021/09/05 05:11:13;;;;;;;21.93;13.48;;;;;;;17.08;69.38;101654.75;1670751;85;21046;-90
2021/09/05 05:13:42;;;;;;;19.73;14.05;;;;;;;17.17;69.17;101658.81;1670790;85;20974;-84
2021/09/05 05:16:14;;;;;;;20.00;13.22;;;;;;;17.28;68.79;101661.92;1670735;85;20998;-91
2021/09/05 05:18:41;;;;;;;18.87;12.53;;;;;;;17.35;68.59;101667.05;1670843;86;21090;-81
2021/09/05 05:21:09;;;;;;;21.35;13.13;;;;;;;17.37;68.28;101668.59;1670476;85;21013;-84
2021/09/05 05:23:36;;;;;;;21.60;12.68;;;;;;;17.36;68.15;101665.60;1670664;85;20907;-88
2021/09/05 05:26:03;;;;;;;20.20;13.18;;;;;;;17.37;68.28;101662.50;1670472;86;21529;-85
2021/09/05 05:28:30;;;;;;;22.35;12.98;;;;;;;17.35;68.36;101669.67;1670639;86;20954;-83
2021/09/05 05:30:56;;;;;;;20.85;13.32;;;;;;;17.30;68.67;101662.62;1670814;86;21152;-84
2021/09/05 05:33:24;;;;;;;22.60;13.15;;;;;;;17.26;68.80;101668.58;1670617;86;20943;-86
2021/09/05 05:35:50;;;;;;;23.90;13.40;;;;;;;17.26;68.89;101675.14;1670375;85;21034;-82
2021/09/05 05:38:17;;;;;;;21.55;13.93;;;;;;;17.27;68.98;101672.89;1670468;86;22818;-85
2021/09/05 05:40:43;;;;;;;20.70;12.45;;;;;;;17.29;69.05;101671.47;1670759;86;21034;-83
2021/09/05 05:43:11;;;;;;;23.45;14.50;;;;;;;17.31;69.06;101676.11;1671170;86;21782;-86
2021/09/05 05:45:37;;;;;;;22.62;13.35;;;;;;;17.33;69.09;101679.44;1671035;85;20852;-85
2021/09/05 05:48:05;;;;;;;20.48;13.10;;;;;;;17.37;69.25;101675.16;1670822;86;20922;-84
2021/09/05 05:50:32;;;;;;;23.70;12.70;;;;;;;17.41;69.31;101683.15;1670809;86;21078;-82
2021/09/05 05:52:58;;;;;;;18.50;11.20;;;;;;;17.45;69.33;101681.93;1670603;86;21038;-85
2021/09/05 05:55:26;;;;;;;22.05;11.65;;;;;;;17.53;69.17;101687.90;1670568;86;21485;-81
2021/09/05 05:57:54;;;;;;;19.37;12.05;;;;;;;17.60;69.08;101679.94;1670803;86;20899;-83
2021/09/05 06:00:25;;;;;;;17.25;12.18;;;;;;;17.70;68.36;101682.66;1670784;86;21055;-84
2021/09/05 06:02:52;;;;;;;18.85;12.18;;;;;;;17.82;67.92;101685.62;1670676;85;21498;-87
2021/09/05 06:05:19;;;;;;;26.62;12.53;;;;;;;17.90;67.76;101684.03;1670538;86;21085;-82
2021/09/05 06:07:46;;;;;;;24.43;12.75;;;;;;;18.01;67.47;101684.97;1651130;86;22024;-87
2021/09/05 06:10:13;;;;;;;14.05;11.28;;;;;;;18.08;66.78;101683.52;1670485;86;20967;-88
2021/09/05 06:12:40;;;;;;;16.07;10.85;;;;;;;18.18;66.17;101696.27;1670699;86;21009;-85
2021/09/05 06:15:09;;;;;;;18.60;12.00;;;;;;;18.24;65.95;101695.29;1670523;86;21588;-89
2021/09/05 06:17:37;;;;;;;15.85;11.83;;;;;;;18.32;65.48;101701.21;1670675;84;21090;-85
2021/09/05 06:20:07;;;;;;;15.45;11.00;;;;;;;18.39;65.60;101705.84;1670621;86;21154;-89
2021/09/05 06:22:34;;;;;;;16.85;10.60;;;;;;;18.46;65.59;101708.33;1651069;86;21002;-85
2021/09/05 06:25:01;;;;;;;19.25;11.25;;;;;;;18.53;64.97;101715.27;1670611;85;20946;-84
2021/09/05 06:27:29;;;;;;;17.02;11.25;;;;;;;18.60;64.23;101713.80;1670907;85;20989;-89
2021/09/05 06:29:56;;;;;;;12.65;10.72;;;;;;;18.66;63.65;101713.77;1670623;86;20938;-87
2021/09/05 06:32:23;;;;;;;19.70;10.75;;;;;;;18.71;63.80;101715.05;1670459;86;21798;-88
2021/09/05 06:34:49;;;;;;;13.83;10.93;;;;;;;18.77;63.43;101714.53;1672451;83;21001;-82
2021/09/05 06:37:17;;;;;;;16.48;10.50;;;;;;;18.84;63.18;101718.32;1678140;85;21057;-88
2021/09/05 06:39:44;;;;;;;15.48;10.80;;;;;;;18.91;63.23;101719.95;1678145;85;21569;-80
2021/09/05 06:42:11;;;;;;;20.48;11.38;;;;;;;18.99;63.19;101724.08;1678005;85;20946;-81
2021/09/05 06:44:38;;;;;;;14.73;10.75;;;;;;;19.05;63.23;101722.23;1677752;85;21165;-82
2021/09/05 06:47:06;;;;;;;24.20;12.80;;;;;;;19.11;62.84;101717.80;1677904;85;21057;-88
2021/09/05 06:49:33;;;;;;;21.48;12.63;;;;;;;19.19;62.74;101723.70;1677927;85;21465;-82
2021/09/05 06:52:00;;;;;;;13.72;10.38;;;;;;;19.26;62.61;101718.27;1677871;85;20984;-81
2021/09/05 06:54:26;;;;;;;15.25;11.57;;;;;;;19.34;62.55;101721.06;1678039;85;20966;-80
2021/09/05 06:56:53;;;;;;;16.75;10.25;;;;;;;19.40;61.81;101727.98;1677884;85;22099;-88
2021/09/05 06:59:20;;;;;;;18.32;9.93;;;;;;;19.46;61.34;101734.03;1677531;85;20998;-85
2021/09/05 07:01:46;;;;;;;17.80;11.70;;;;;;;19.48;61.51;101739.19;1677812;85;21152;-89
2021/09/05 07:04:13;;;;;;;19.42;11.38;;;;;;;19.48;62.08;101741.34;1678121;85;21042;-88
2021/09/05 07:06:39;;;;;;;15.80;10.85;;;;;;;19.50;62.84;101749.09;1677939;85;21017;-85
2021/09/05 07:09:07;;;;;;;18.60;11.78;;;;;;;19.52;62.70;101752.44;1677895;85;21124;-88
2021/09/05 07:11:33;;;;;;;22.75;11.03;;;;;;;19.53;63.18;101759.35;1678385;85;21557;-84
2021/09/05 07:14:00;;;;;;;21.12;12.23;;;;;;;19.53;63.37;101768.57;1679288;85;20974;-84
2021/09/05 07:16:26;;;;;;;18.07;11.10;;;;;;;19.49;62.48;101776.41;1677844;85;20887;-89
2021/09/05 07:18:53;;;;;;;16.10;10.93;;;;;;;19.41;62.94;101773.09;1678547;85;20959;-84
2021/09/05 07:21:20;;;;;;;14.43;10.23;;;;;;;19.41;63.02;101771.78;1680130;85;21144;-89
2021/09/05 07:23:47;;;;;;;19.30;11.22;;;;;;;19.43;62.36;101775.61;1678205;85;20894;-88
2021/09/05 07:26:13;;;;;;;16.23;9.50;;;;;;;19.47;61.24;101778.31;1673575;85;21051;-88
2021/09/05 07:28:40;;;;;;;16.97;9.20;;;;;;;19.52;60.83;101779.61;1673645;85;21046;-87
2021/09/05 07:31:07;;;;;;;16.27;9.70;;;;;;;19.60;60.03;101788.14;1673781;85;21560;-86
2021/09/05 07:33:34;;;;;;;14.63;8.80;;;;;;;19.68;59.27;101790.97;1673817;85;39084;-86
2021/09/05 07:36:01;;;;;;;11.75;8.95;;;;;;;19.78;58.33;101794.48;1680102;84;20948;-83
2021/09/05 07:38:27;;;;;;;13.32;8.95;;;;;;;19.87;56.86;101800.27;1683904;84;21027;-86
2021/09/05 07:40:54;;;;;;;12.37;8.88;;;;;;;19.90;56.68;101796.04;1684046;84;21019;-84
2021/09/05 07:43:21;;;;;;;13.72;8.83;;;;;;;19.91;56.33;101799.00;1684044;84;21015;-89
2021/09/05 07:45:48;;;;;;;11.48;8.18;;;;;;;19.91;56.85;101802.95;1684026;83;21329;-86
2021/09/05 07:48:15;;;;;;;18.32;9.18;;;;;;;19.93;56.78;101811.58;1684054;84;20959;-82
2021/09/05 07:50:42;;;;;;;27.58;10.10;;;;;;;19.92;56.72;101805.11;1684049;85;20963;-86
2021/09/05 07:53:09;;;;;;;16.40;8.08;;;;;;;19.93;56.88;101818.16;1684151;85;21043;-84
2021/09/05 07:55:36;;;;;;;13.28;8.08;;;;;;;19.97;56.06;101817.42;1684423;85;20975;-83
2021/09/05 07:58:03;;;;;;;13.53;7.75;;;;;;;20.00;55.71;101821.94;1684161;85;21585;-83
2021/09/05 08:00:29;;;;;;;10.95;7.25;;;;;;;20.01;55.59;101822.27;1684123;85;21597;-80
2021/09/05 08:02:56;;;;;;;12.70;8.28;;;;;;;20.02;55.29;101827.90;1684140;85;20905;-86
2021/09/05 08:05:22;;;;;;;12.85;8.18;;;;;;;20.06;54.89;101828.47;1684181;85;21026;-81
2021/09/05 08:07:50;;;;;;;12.28;7.37;;;;;;;20.07;55.38;101821.73;1684065;84;20959;-84
2021/09/05 08:10:16;;;;;;;14.93;8.13;;;;;;;20.13;55.13;101828.29;1684067;84;21971;-85
2021/09/05 08:12:44;;;;;;;11.25;7.62;;;;;;;20.20;54.73;101826.75;1683904;84;21577;-88
2021/09/05 08:15:11;;;;;;;16.10;8.68;;;;;;;20.16;54.15;101831.97;1684056;85;20960;-85
2021/09/05 08:17:37;;;;;;;14.00;8.00;;;;;;;20.16;54.94;101831.97;1684073;85;20992;-83
2021/09/05 08:20:05;;;;;;;10.10;7.45;;;;;;;20.23;54.26;101837.03;1684147;84;21467;-86
2021/09/05 08:22:32;;;;;;;10.30;7.58;;;;;;;20.30;54.54;101838.67;1684058;84;21218;-84
2021/09/05 08:24:58;;;;;;;10.40;7.47;;;;;;;20.38;54.55;101838.37;1684073;84;21487;-84
2021/09/05 08:27:25;;;;;;;9.98;7.50;;;;;;;20.45;53.64;101839.97;1684044;85;20960;-81
2021/09/05 08:29:51;;;;;;;11.50;7.28;;;;;;;20.51;53.15;101844.70;1683995;84;21531;-87
2021/09/05 08:32:18;;;;;;;14.80;7.25;;;;;;;20.56;52.85;101837.20;1684022;85;21317;-86
2021/09/05 08:34:45;;;;;;;9.50;7.55;;;;;;;20.66;53.18;101842.00;1683894;85;21172;-83
2021/09/05 08:37:12;;;;;;;10.45;7.80;;;;;;;20.81;52.48;101834.02;1683996;84;21558;-84
2021/09/05 08:39:38;;;;;;;9.70;7.10;;;;;;;20.99;52.38;101834.17;1684239;85;21137;-84
2021/09/05 08:42:06;;;;;;;12.98;6.92;;;;;;;21.18;52.05;101842.09;1684115;84;21101;-88
2021/09/05 08:44:33;;;;;;;8.75;7.20;;;;;;;21.42;51.82;101842.94;1684065;85;21126;-85
2021/09/05 08:47:02;;;;;;;10.35;7.05;;;;;;;21.58;51.12;101843.17;1684177;84;21038;-89
2021/09/05 08:49:33;;;;;;;10.13;6.70;;;;;;;21.70;50.83;101840.70;1683804;85;21158;-85
2021/09/05 08:52:05;;;;;;;11.93;7.33;;;;;;;21.82;50.09;101840.05;1684059;85;21616;-90
2021/09/05 08:54:32;;;;;;;;;;;;;;;21.88;49.64;101840.78;1686611;83;21043;-85
2021/09/05 08:57:00;;;;;;;9.93;6.55;;;;;;;21.90;49.79;101842.33;1684304;85;20131;-85
2021/09/05 08:59:28;;;;;;;10.08;6.97;;;;;;;21.94;50.14;101841.55;1683845;85;21178;-88
2021/09/05 09:01:56;;;;;;;8.08;6.75;;;;;;;22.01;50.10;101840.83;1684072;84;20936;-81
2021/09/05 09:04:23;;;;;;;6.70;5.78;;;;;;;22.09;50.04;101842.23;1683824;85;20971;-87
2021/09/05 09:06:51;;;;;;;8.63;5.95;;;;;;;22.14;49.60;101832.55;1684225;84;20936;-86
2021/09/05 09:09:18;;;;;;;8.18;5.42;;;;;;;22.14;47.43;101844.45;1684070;84;21361;-84
2021/09/05 09:11:55;;;;;;;8.25;5.83;;;;;;;22.05;47.71;101836.89;1684213;85;21812;-82
2021/09/05 09:14:44;;;;;;;12.13;6.12;;;;;;;21.98;47.18;101839.80;1683248;85;21037;-86
2021/09/05 09:17:11;;;;;;;8.63;5.90;;;;;;;21.91;47.88;101848.45;1683873;85;21533;-82
2021/09/05 09:19:39;;;;;;;9.38;5.92;;;;;;;21.98;47.59;101844.25;1684079;85;21036;-83
2021/09/05 09:22:17;;;;;;;9.00;5.85;;;;;;;22.03;47.19;101840.19;1684040;84;21581;-82
2021/09/05 09:24:44;;;;;;;6.12;5.15;;;;;;;22.02;46.91;101834.55;1684359;85;21161;-78
2021/09/05 09:27:11;;;;;;;9.23;5.28;;;;;;;22.09;46.19;101838.76;1684172;85;21000;-81
2021/09/05 09:29:39;;;;;;;17.98;6.92;;;;;;;22.14;45.81;101843.94;1684071;85;20965;-85
2021/09/05 09:32:09;;;;;;;10.08;6.10;;;;;;;22.17;45.80;101841.52;1684244;85;20956;-86
2021/09/05 09:34:48;;;;;;;8.23;5.53;;;;;;;22.22;46.18;101841.05;1684238;85;21439;-80
2021/09/05 09:37:17;;;;;;;9.43;6.20;;;;;;;22.30;45.82;101851.73;1683652;83;21163;-86
2021/09/05 09:39:47;;;;;;;8.23;5.78;;;;;;;22.32;45.16;101844.47;1684072;85;21055;-86
2021/09/05 09:42:38;;;;;;;6.40;5.75;;;;;;;22.26;45.98;101846.39;1684144;85;20968;-86
2021/09/05 09:45:15;;;;;;;8.35;5.85;;;;;;;22.37;46.32;101850.17;1683891;85;21019;-84
2021/09/05 09:47:45;;;;;;;7.45;5.55;;;;;;;22.86;45.86;101839.58;1683986;84;21044;-80
2021/09/05 09:50:14;;;;;;;7.35;5.28;;;;;;;23.96;42.64;101839.34;1683909;84;21160;-87
2021/09/05 09:52:41;;;;;;;9.35;4.78;;;;;;;25.15;40.08;101833.61;1683987;85;21068;-83
2021/09/05 09:55:08;;;;;;;5.85;4.87;;;;;;;26.19;37.07;101828.55;1684106;85;20948;-86
2021/09/05 09:57:35;;;;;;;10.75;4.05;;;;;;;27.13;35.35;101829.52;1684051;84;20980;-80
2021/09/05 10:00:07;;;;;;;6.95;4.40;;;;;;;27.97;32.95;101836.28;1684060;85;21007;-86
2021/09/05 10:02:41;;;;;;;8.48;4.20;;;;;;;28.61;31.14;101836.41;1683905;85;21202;-85
2021/09/05 10:05:10;;;;;;;7.72;4.75;;;;;;;29.19;30.45;101833.96;1666162;85;21000;-81
2021/09/05 10:07:38;;;;;;;7.90;4.50;;;;;;;29.60;29.88;101837.55;1666338;85;20964;-86
2021/09/05 10:10:06;;;;;;;7.35;4.67;;;;;;;29.82;29.29;101834.26;1666069;85;20977;-86
2021/09/05 10:12:34;;;;;;;5.70;4.65;;;;;;;30.11;29.18;101839.36;1666554;85;21031;-82
2021/09/05 10:15:03;;;;;;;5.80;4.97;;;;;;;30.64;28.25;101835.48;1684002;84;21181;-81
2021/09/05 10:17:30;;;;;;;5.70;4.80;;;;;;;31.22;27.91;101840.05;1683755;85;21065;-82
2021/09/05 10:20:00;;;;;;;7.70;4.22;;;;;;;31.96;26.64;101833.78;1666298;85;20920;-82
2021/09/05 10:22:31;;;;;;;6.40;4.95;;;;;;;32.57;25.67;101834.63;1644643;85;21126;-88
2021/09/05 10:25:00;;;;;;;6.12;4.70;;;;;;;32.25;25.30;101840.49;1684074;85;20908;-85
2021/09/05 10:27:32;;;;;;;5.45;4.35;;;;;;;30.90;27.41;101847.05;1666364;85;21163;-85
2021/09/05 10:30:12;;;;;;;6.70;4.92;;;;;;;29.87;27.01;101851.91;1683815;85;21069;-84
2021/09/05 10:33:00;;;;;;;6.33;4.60;;;;;;;28.96;28.73;101851.56;1684160;85;20961;-79
2021/09/05 10:35:47;;;;;;;4.47;4.08;;;;;;;28.00;29.80;101850.59;1683417;84;20967;-77
2021/09/05 10:38:26;;;;;;;8.48;5.12;;;;;;;27.31;30.85;101853.19;1677653;85;21536;-79
2021/09/05 10:40:58;;;;;;;6.53;4.85;;;;;;;26.81;31.52;101851.94;1678084;85;21178;-83
2021/09/05 10:43:52;;;;;;;8.35;6.20;;;;;;;26.60;32.68;101846.41;1677910;85;20938;-86
2021/09/05 10:46:27;;;;;;;8.93;4.58;;;;;;;26.52;32.84;101851.77;1678034;84;20927;-81
2021/09/05 10:48:59;;;;;;;12.50;5.60;;;;;;;26.29;32.46;101846.95;1654764;85;21018;-82
2021/09/05 10:51:41;;;;;;;7.60;4.67;;;;;;;26.09;32.86;101849.67;1678028;84;21014;-83
2021/09/05 10:54:12;;;;;;;9.30;4.90;;;;;;;25.89;32.99;101849.25;1677576;84;21194;-84
2021/09/05 10:56:43;;;;;;;5.70;4.37;;;;;;;25.60;34.45;101850.34;1654390;85;21018;-86
2021/09/05 10:59:12;;;;;;;9.30;5.08;;;;;;;25.47;33.87;101853.98;1677677;85;20961;-79
2021/09/05 11:01:49;;;;;;;10.65;5.17;;;;;;;25.45;34.70;101858.66;1677914;84;21001;-82
2021/09/05 11:04:31;;;;;;;7.97;6.12;;;;;;;25.33;35.20;101860.84;1677510;84;21173;-79
2021/09/05 11:07:05;;;;;;;8.83;5.80;;;;;;;25.23;35.98;101858.86;1677055;84;21154;-78
2021/09/05 11:09:39;;;;;;;6.25;5.35;;;;;;;25.09;37.02;101860.35;1677822;84;20990;-82
2021/09/05 11:12:25;;;;;;;12.10;5.80;;;;;;;24.93;37.70;101858.19;1677661;84;20965;-79
2021/09/05 11:14:55;;;;;;;11.78;7.03;;;;;;;24.87;38.41;101853.54;1674466;84;21473;-88
2021/09/05 11:17:32;;;;;;;11.90;7.07;;;;;;;24.89;38.86;101853.70;1677923;84;20977;-85
2021/09/05 11:20:06;;;;;;;17.15;7.87;;;;;;;24.81;39.38;101851.52;1677733;84;22150;-82
2021/09/05 11:22:42;;;;;;;10.43;7.42;;;;;;;24.85;39.80;101847.08;1677643;85;21560;-78
2021/09/05 11:25:23;;;;;;;10.45;7.25;;;;;;;25.00;39.56;101847.23;1677675;85;21100;-80
2021/09/05 11:28:00;;;;;;;8.85;6.67;;;;;;;25.08;39.63;101842.74;1677967;85;21053;-81
2021/09/05 11:30:36;;;;;;;10.75;7.05;;;;;;;25.20;39.57;101838.77;1677793;84;21037;-80
2021/09/05 11:33:10;;;;;;;12.10;7.47;;;;;;;25.25;39.62;101834.27;1677948;84;21803;-85